sensor_id;sensor_type;location;lat;lon;timestamp;P1;durP1;ratioP1;P2;durP2;ratioP2
11839;SDS011;5979;50.800;4.904;2022-12-07T00:01:24;19.35;;;14.10;;
11839;SDS011;5979;50.800;4.904;2022-12-07T00:03:53;17.70;;;13.23;;
11839;SDS011;5979;50.800;4.904;2022-12-07T00:06:22;18.85;;;13.80;;
11839;SDS011;5979;50.800;4.904;2022-12-07T00:08:48;16.10;;;13.73;;
11839;SDS011;5979;50.800;4.904;2022-12-07T00:11:14;19.17;;;14.40;;
11839;SDS011;5979;50.800;4.904;2022-12-07T00:13:42;16.38;;;13.93;;
11839;SDS011;5979;50.800;4.904;2022-12-07T00:16:09;18.40;;;13.23;;
11839;SDS011;5979;50.800;4.904;2022-12-07T00:18:40;18.88;;;13.73;;
11839;SDS011;5979;50.800;4.904;2022-12-07T00:21:09;18.70;;;14.80;;
11839;SDS011;5979;50.800;4.904;2022-12-07T00:23:42;19.33;;;14.77;;
11839;SDS011;5979;50.800;4.904;2022-12-07T00:26:10;18.00;;;14.10;;
11839;SDS011;5979;50.800;4.904;2022-12-07T00:28:48;17.88;;;14.00;;
11839;SDS011;5979;50.800;4.904;2022-12-07T00:31:18;19.45;;;14.32;;
11839;SDS011;5979;50.800;4.904;2022-12-07T00:33:45;17.65;;;14.15;;
11839;SDS011;5979;50.800;4.904;2022-12-07T00:36:12;16.25;;;13.40;;
11839;SDS011;5979;50.800;4.904;2022-12-07T00:38:40;19.80;;;14.20;;
11839;SDS011;5979;50.800;4.904;2022-12-07T00:41:07;18.17;;;13.93;;
11839;SDS011;5979;50.800;4.904;2022-12-07T00:43:39;20.53;;;14.87;;
11839;SDS011;5979;50.800;4.904;2022-12-07T00:46:06;17.83;;;14.63;;
11839;SDS011;5979;50.800;4.904;2022-12-07T00:48:32;18.67;;;13.90;;
11839;SDS011;5979;50.800;4.904;2022-12-07T00:50:58;17.20;;;13.80;;
11839;SDS011;5979;50.800;4.904;2022-12-07T00:53:24;24.20;;;15.40;;
11839;SDS011;5979;50.800;4.904;2022-12-07T00:55:51;19.13;;;14.67;;
11839;SDS011;5979;50.800;4.904;2022-12-07T00:58:17;21.93;;;14.83;;
11839;SDS011;5979;50.800;4.904;2022-12-07T01:00:43;18.53;;;14.63;;
11839;SDS011;5979;50.800;4.904;2022-12-07T01:03:11;19.23;;;14.80;;
11839;SDS011;5979;50.800;4.904;2022-12-07T01:05:38;18.93;;;14.80;;
11839;SDS011;5979;50.800;4.904;2022-12-07T01:08:04;16.90;;;13.93;;
11839;SDS011;5979;50.800;4.904;2022-12-07T01:10:31;20.20;;;14.65;;
11839;SDS011;5979;50.800;4.904;2022-12-07T01:12:57;19.23;;;15.27;;
11839;SDS011;5979;50.800;4.904;2022-12-07T01:15:23;19.30;;;14.77;;
11839;SDS011;5979;50.800;4.904;2022-12-07T01:17:50;19.40;;;15.23;;
11839;SDS011;5979;50.800;4.904;2022-12-07T01:20:15;16.70;;;14.20;;
11839;SDS011;5979;50.800;4.904;2022-12-07T01:22:42;22.70;;;14.50;;
11839;SDS011;5979;50.800;4.904;2022-12-07T01:25:08;19.73;;;15.17;;
11839;SDS011;5979;50.800;4.904;2022-12-07T01:27:36;16.58;;;14.18;;
11839;SDS011;5979;50.800;4.904;2022-12-07T01:30:03;18.63;;;14.55;;
11839;SDS011;5979;50.800;4.904;2022-12-07T01:32:31;21.52;;;14.75;;
11839;SDS011;5979;50.800;4.904;2022-12-07T01:34:57;17.58;;;14.57;;
11839;SDS011;5979;50.800;4.904;2022-12-07T01:37:23;18.95;;;14.27;;
11839;SDS011;5979;50.800;4.904;2022-12-07T01:39:49;17.80;;;14.43;;
11839;SDS011;5979;50.800;4.904;2022-12-07T01:42:17;17.75;;;14.90;;
11839;SDS011;5979;50.800;4.904;2022-12-07T01:47:43;17.88;;;15.07;;
11839;SDS011;5979;50.800;4.904;2022-12-07T01:50:13;19.83;;;14.65;;
11839;SDS011;5979;50.800;4.904;2022-12-07T01:52:40;19.97;;;15.90;;
11839;SDS011;5979;50.800;4.904;2022-12-07T01:55:10;20.52;;;15.48;;
11839;SDS011;5979;50.800;4.904;2022-12-07T01:57:42;17.88;;;14.60;;
11839;SDS011;5979;50.800;4.904;2022-12-07T02:00:12;17.35;;;13.93;;
11839;SDS011;5979;50.800;4.904;2022-12-07T02:02:41;17.97;;;13.63;;
11839;SDS011;5979;50.800;4.904;2022-12-07T02:05:20;20.27;;;15.17;;
11839;SDS011;5979;50.800;4.904;2022-12-07T02:07:49;18.30;;;13.83;;
11839;SDS011;5979;50.800;4.904;2022-12-07T02:10:25;16.60;;;14.60;;
11839;SDS011;5979;50.800;4.904;2022-12-07T02:12:56;21.30;;;15.83;;
11839;SDS011;5979;50.800;4.904;2022-12-07T02:15:24;20.47;;;16.17;;
11839;SDS011;5979;50.800;4.904;2022-12-07T02:18:02;19.37;;;14.13;;
11839;SDS011;5979;50.800;4.904;2022-12-07T02:20:57;20.47;;;15.33;;
11839;SDS011;5979;50.800;4.904;2022-12-07T02:29:25;21.20;;;15.43;;
11839;SDS011;5979;50.800;4.904;2022-12-07T02:32:09;21.93;;;16.13;;
11839;SDS011;5979;50.800;4.904;2022-12-07T02:37:21;20.57;;;16.53;;
11839;SDS011;5979;50.800;4.904;2022-12-07T02:40:19;24.30;;;18.20;;
11839;SDS011;5979;50.800;4.904;2022-12-07T02:42:55;23.23;;;16.60;;
11839;SDS011;5979;50.800;4.904;2022-12-07T02:45:31;28.87;;;17.87;;
11839;SDS011;5979;50.800;4.904;2022-12-07T02:48:01;25.13;;;17.80;;
11839;SDS011;5979;50.800;4.904;2022-12-07T02:50:28;23.97;;;17.63;;
11839;SDS011;5979;50.800;4.904;2022-12-07T02:52:54;23.93;;;17.50;;
11839;SDS011;5979;50.800;4.904;2022-12-07T02:55:22;26.80;;;18.07;;
11839;SDS011;5979;50.800;4.904;2022-12-07T03:00:25;23.40;;;17.80;;
11839;SDS011;5979;50.800;4.904;2022-12-07T03:02:58;23.27;;;18.00;;
11839;SDS011;5979;50.800;4.904;2022-12-07T03:11:13;23.73;;;17.40;;
11839;SDS011;5979;50.800;4.904;2022-12-07T03:16:45;22.70;;;17.07;;
11839;SDS011;5979;50.800;4.904;2022-12-07T03:19:10;22.07;;;17.63;;
11839;SDS011;5979;50.800;4.904;2022-12-07T03:21:40;27.90;;;17.97;;
11839;SDS011;5979;50.800;4.904;2022-12-07T03:24:19;25.20;;;17.53;;
11839;SDS011;5979;50.800;4.904;2022-12-07T03:26:52;22.30;;;18.07;;
11839;SDS011;5979;50.800;4.904;2022-12-07T03:29:34;30.10;;;18.43;;
11839;SDS011;5979;50.800;4.904;2022-12-07T03:32:10;21.97;;;17.90;;
11839;SDS011;5979;50.800;4.904;2022-12-07T03:34:57;26.73;;;18.33;;
11839;SDS011;5979;50.800;4.904;2022-12-07T03:42:36;26.58;;;17.83;;
11839;SDS011;5979;50.800;4.904;2022-12-07T03:45:02;25.67;;;18.70;;
11839;SDS011;5979;50.800;4.904;2022-12-07T03:47:33;23.77;;;17.30;;
11839;SDS011;5979;50.800;4.904;2022-12-07T03:57:33;24.17;;;17.90;;
11839;SDS011;5979;50.800;4.904;2022-12-07T04:00:00;25.07;;;17.63;;
11839;SDS011;5979;50.800;4.904;2022-12-07T04:02:28;24.35;;;18.63;;
11839;SDS011;5979;50.800;4.904;2022-12-07T04:04:54;23.33;;;17.07;;
11839;SDS011;5979;50.800;4.904;2022-12-07T04:07:21;25.23;;;16.23;;
11839;SDS011;5979;50.800;4.904;2022-12-07T04:09:47;25.00;;;17.40;;
11839;SDS011;5979;50.800;4.904;2022-12-07T04:12:12;24.10;;;17.30;;
11839;SDS011;5979;50.800;4.904;2022-12-07T04:14:38;21.13;;;16.40;;
11839;SDS011;5979;50.800;4.904;2022-12-07T04:17:04;19.10;;;15.40;;
11839;SDS011;5979;50.800;4.904;2022-12-07T04:19:30;19.27;;;15.63;;
11839;SDS011;5979;50.800;4.904;2022-12-07T04:21:58;21.20;;;16.53;;
11839;SDS011;5979;50.800;4.904;2022-12-07T04:24:26;20.43;;;16.30;;
11839;SDS011;5979;50.800;4.904;2022-12-07T04:26:52;19.00;;;15.63;;
11839;SDS011;5979;50.800;4.904;2022-12-07T04:29:18;21.37;;;15.07;;
11839;SDS011;5979;50.800;4.904;2022-12-07T04:31:44;21.47;;;15.73;;
11839;SDS011;5979;50.800;4.904;2022-12-07T04:34:10;20.83;;;15.70;;
11839;SDS011;5979;50.800;4.904;2022-12-07T04:36:36;19.90;;;14.67;;
11839;SDS011;5979;50.800;4.904;2022-12-07T04:39:03;19.53;;;15.47;;
11839;SDS011;5979;50.800;4.904;2022-12-07T04:41:30;21.70;;;16.27;;
11839;SDS011;5979;50.800;4.904;2022-12-07T04:43:57;20.53;;;15.93;;
11839;SDS011;5979;50.800;4.904;2022-12-07T04:46:28;23.63;;;17.07;;
11839;SDS011;5979;50.800;4.904;2022-12-07T04:48:56;19.17;;;15.27;;
11839;SDS011;5979;50.800;4.904;2022-12-07T04:51:23;21.33;;;15.00;;
11839;SDS011;5979;50.800;4.904;2022-12-07T04:53:50;19.00;;;14.73;;
11839;SDS011;5979;50.800;4.904;2022-12-07T04:56:16;18.20;;;14.43;;
11839;SDS011;5979;50.800;4.904;2022-12-07T04:58:43;19.13;;;15.07;;
11839;SDS011;5979;50.800;4.904;2022-12-07T05:01:10;19.03;;;15.00;;
11839;SDS011;5979;50.800;4.904;2022-12-07T05:03:36;19.67;;;14.40;;
11839;SDS011;5979;50.800;4.904;2022-12-07T05:06:03;18.73;;;15.67;;
11839;SDS011;5979;50.800;4.904;2022-12-07T05:08:29;20.87;;;14.77;;
11839;SDS011;5979;50.800;4.904;2022-12-07T05:10:55;19.30;;;15.57;;
11839;SDS011;5979;50.800;4.904;2022-12-07T05:13:21;18.60;;;15.60;;
11839;SDS011;5979;50.800;4.904;2022-12-07T05:15:47;20.83;;;15.57;;
11839;SDS011;5979;50.800;4.904;2022-12-07T05:18:13;21.53;;;15.07;;
11839;SDS011;5979;50.800;4.904;2022-12-07T05:20:40;19.17;;;15.23;;
11839;SDS011;5979;50.800;4.904;2022-12-07T05:23:06;17.20;;;15.33;;
11839;SDS011;5979;50.800;4.904;2022-12-07T05:25:32;21.87;;;15.40;;
11839;SDS011;5979;50.800;4.904;2022-12-07T05:27:57;19.33;;;15.50;;
11839;SDS011;5979;50.800;4.904;2022-12-07T05:30:24;17.83;;;14.53;;
11839;SDS011;5979;50.800;4.904;2022-12-07T05:32:50;18.40;;;15.47;;
11839;SDS011;5979;50.800;4.904;2022-12-07T05:35:16;16.67;;;13.37;;
11839;SDS011;5979;50.800;4.904;2022-12-07T05:37:42;18.80;;;14.80;;
11839;SDS011;5979;50.800;4.904;2022-12-07T05:40:10;17.67;;;13.77;;
11839;SDS011;5979;50.800;4.904;2022-12-07T05:42:36;17.50;;;14.10;;
11839;SDS011;5979;50.800;4.904;2022-12-07T05:45:02;17.60;;;14.20;;
11839;SDS011;5979;50.800;4.904;2022-12-07T05:47:29;18.37;;;14.30;;
11839;SDS011;5979;50.800;4.904;2022-12-07T05:49:54;20.50;;;14.47;;
11839;SDS011;5979;50.800;4.904;2022-12-07T05:52:20;15.83;;;13.67;;
11839;SDS011;5979;50.800;4.904;2022-12-07T05:54:46;21.23;;;14.93;;
11839;SDS011;5979;50.800;4.904;2022-12-07T05:57:13;19.50;;;14.57;;
11839;SDS011;5979;50.800;4.904;2022-12-07T05:59:39;20.57;;;15.07;;
11839;SDS011;5979;50.800;4.904;2022-12-07T06:02:06;21.30;;;14.40;;
11839;SDS011;5979;50.800;4.904;2022-12-07T06:04:41;17.60;;;14.63;;
11839;SDS011;5979;50.800;4.904;2022-12-07T06:07:08;17.87;;;13.00;;
11839;SDS011;5979;50.800;4.904;2022-12-07T06:09:35;17.80;;;13.40;;
11839;SDS011;5979;50.800;4.904;2022-12-07T06:12:01;18.40;;;15.70;;
11839;SDS011;5979;50.800;4.904;2022-12-07T06:14:46;16.83;;;14.17;;
11839;SDS011;5979;50.800;4.904;2022-12-07T06:17:12;17.60;;;13.60;;
11839;SDS011;5979;50.800;4.904;2022-12-07T06:19:38;18.93;;;14.93;;
11839;SDS011;5979;50.800;4.904;2022-12-07T06:22:04;19.03;;;14.53;;
11839;SDS011;5979;50.800;4.904;2022-12-07T06:24:31;17.63;;;14.37;;
11839;SDS011;5979;50.800;4.904;2022-12-07T06:26:58;18.90;;;15.40;;
11839;SDS011;5979;50.800;4.904;2022-12-07T06:29:23;15.93;;;13.13;;
11839;SDS011;5979;50.800;4.904;2022-12-07T06:31:49;21.60;;;15.07;;
11839;SDS011;5979;50.800;4.904;2022-12-07T06:34:16;15.40;;;13.23;;
11839;SDS011;5979;50.800;4.904;2022-12-07T06:36:44;16.30;;;13.43;;
11839;SDS011;5979;50.800;4.904;2022-12-07T06:39:10;17.80;;;13.33;;
11839;SDS011;5979;50.800;4.904;2022-12-07T06:41:37;18.80;;;12.93;;
11839;SDS011;5979;50.800;4.904;2022-12-07T06:44:06;16.63;;;12.60;;
11839;SDS011;5979;50.800;4.904;2022-12-07T06:46:32;16.20;;;12.67;;
11839;SDS011;5979;50.800;4.904;2022-12-07T06:49:00;16.33;;;13.00;;
11839;SDS011;5979;50.800;4.904;2022-12-07T06:51:26;17.53;;;13.60;;
11839;SDS011;5979;50.800;4.904;2022-12-07T06:53:52;17.10;;;13.50;;
11839;SDS011;5979;50.800;4.904;2022-12-07T06:56:17;17.70;;;13.93;;
11839;SDS011;5979;50.800;4.904;2022-12-07T06:58:43;16.47;;;12.87;;
11839;SDS011;5979;50.800;4.904;2022-12-07T07:01:13;13.63;;;12.23;;
11839;SDS011;5979;50.800;4.904;2022-12-07T07:03:39;15.70;;;13.10;;
11839;SDS011;5979;50.800;4.904;2022-12-07T07:06:06;15.57;;;11.93;;
11839;SDS011;5979;50.800;4.904;2022-12-07T07:08:32;15.67;;;13.33;;
11839;SDS011;5979;50.800;4.904;2022-12-07T07:10:59;16.43;;;13.30;;
11839;SDS011;5979;50.800;4.904;2022-12-07T07:13:25;13.60;;;12.10;;
11839;SDS011;5979;50.800;4.904;2022-12-07T07:15:51;14.27;;;12.03;;
11839;SDS011;5979;50.800;4.904;2022-12-07T07:18:17;14.13;;;12.60;;
11839;SDS011;5979;50.800;4.904;2022-12-07T07:20:43;16.90;;;12.40;;
11839;SDS011;5979;50.800;4.904;2022-12-07T07:23:08;14.07;;;12.57;;
11839;SDS011;5979;50.800;4.904;2022-12-07T07:25:34;15.20;;;12.53;;
11839;SDS011;5979;50.800;4.904;2022-12-07T07:28:00;16.50;;;12.73;;
11839;SDS011;5979;50.800;4.904;2022-12-07T07:30:27;17.07;;;13.67;;
11839;SDS011;5979;50.800;4.904;2022-12-07T07:32:57;15.00;;;13.00;;
11839;SDS011;5979;50.800;4.904;2022-12-07T07:35:23;14.23;;;12.57;;
11839;SDS011;5979;50.800;4.904;2022-12-07T07:37:50;14.77;;;13.00;;
11839;SDS011;5979;50.800;4.904;2022-12-07T07:40:16;17.07;;;13.13;;
11839;SDS011;5979;50.800;4.904;2022-12-07T07:42:41;15.20;;;12.87;;
11839;SDS011;5979;50.800;4.904;2022-12-07T07:45:07;16.30;;;13.53;;
11839;SDS011;5979;50.800;4.904;2022-12-07T07:47:33;17.50;;;13.23;;
11839;SDS011;5979;50.800;4.904;2022-12-07T07:49:59;15.27;;;13.27;;
11839;SDS011;5979;50.800;4.904;2022-12-07T07:52:25;19.70;;;13.10;;
11839;SDS011;5979;50.800;4.904;2022-12-07T07:54:51;15.63;;;13.93;;
11839;SDS011;5979;50.800;4.904;2022-12-07T07:57:17;15.17;;;12.67;;
11839;SDS011;5979;50.800;4.904;2022-12-07T07:59:43;15.97;;;13.10;;
11839;SDS011;5979;50.800;4.904;2022-12-07T08:02:15;14.00;;;12.03;;
11839;SDS011;5979;50.800;4.904;2022-12-07T08:04:43;17.43;;;13.17;;
11839;SDS011;5979;50.800;4.904;2022-12-07T08:07:09;15.40;;;12.77;;
11839;SDS011;5979;50.800;4.904;2022-12-07T08:09:35;15.43;;;13.83;;
11839;SDS011;5979;50.800;4.904;2022-12-07T08:12:01;13.90;;;12.20;;
11839;SDS011;5979;50.800;4.904;2022-12-07T08:14:27;17.03;;;13.33;;
11839;SDS011;5979;50.800;4.904;2022-12-07T08:16:53;16.97;;;12.70;;
11839;SDS011;5979;50.800;4.904;2022-12-07T08:19:19;15.87;;;12.77;;
11839;SDS011;5979;50.800;4.904;2022-12-07T08:21:45;17.17;;;13.00;;
11839;SDS011;5979;50.800;4.904;2022-12-07T08:24:11;17.23;;;13.25;;
11839;SDS011;5979;50.800;4.904;2022-12-07T08:26:37;13.80;;;12.50;;
11839;SDS011;5979;50.800;4.904;2022-12-07T08:29:02;15.73;;;13.05;;
11839;SDS011;5979;50.800;4.904;2022-12-07T08:31:28;15.43;;;13.10;;
11839;SDS011;5979;50.800;4.904;2022-12-07T08:33:54;16.10;;;12.27;;
11839;SDS011;5979;50.800;4.904;2022-12-07T08:36:20;16.07;;;12.90;;
11839;SDS011;5979;50.800;4.904;2022-12-07T08:38:47;15.53;;;11.67;;
11839;SDS011;5979;50.800;4.904;2022-12-07T08:41:13;14.10;;;11.63;;
11839;SDS011;5979;50.800;4.904;2022-12-07T08:43:39;16.23;;;12.33;;
11839;SDS011;5979;50.800;4.904;2022-12-07T08:48:56;13.13;;;11.63;;
11839;SDS011;5979;50.800;4.904;2022-12-07T08:51:34;14.13;;;11.20;;
11839;SDS011;5979;50.800;4.904;2022-12-07T08:54:01;13.23;;;11.77;;
11839;SDS011;5979;50.800;4.904;2022-12-07T08:56:30;14.87;;;12.23;;
11839;SDS011;5979;50.800;4.904;2022-12-07T08:58:55;15.60;;;12.43;;
11839;SDS011;5979;50.800;4.904;2022-12-07T09:01:23;14.20;;;11.53;;
11839;SDS011;5979;50.800;4.904;2022-12-07T09:03:48;14.77;;;12.00;;
11839;SDS011;5979;50.800;4.904;2022-12-07T09:06:14;14.47;;;10.93;;
11839;SDS011;5979;50.800;4.904;2022-12-07T09:08:41;14.25;;;11.43;;
11839;SDS011;5979;50.800;4.904;2022-12-07T09:11:10;13.93;;;11.02;;
11839;SDS011;5979;50.800;4.904;2022-12-07T09:13:36;11.50;;;10.25;;
11839;SDS011;5979;50.800;4.904;2022-12-07T09:16:02;15.35;;;10.90;;
11839;SDS011;5979;50.800;4.904;2022-12-07T09:18:27;12.73;;;10.87;;
11839;SDS011;5979;50.800;4.904;2022-12-07T09:20:53;11.93;;;10.73;;
11839;SDS011;5979;50.800;4.904;2022-12-07T09:23:19;16.57;;;10.63;;
11839;SDS011;5979;50.800;4.904;2022-12-07T09:25:45;15.57;;;10.82;;
11839;SDS011;5979;50.800;4.904;2022-12-07T09:28:10;15.13;;;11.03;;
11839;SDS011;5979;50.800;4.904;2022-12-07T09:30:36;12.32;;;10.07;;
11839;SDS011;5979;50.800;4.904;2022-12-07T09:33:02;13.85;;;11.38;;
11839;SDS011;5979;50.800;4.904;2022-12-07T09:35:27;11.35;;;9.90;;
11839;SDS011;5979;50.800;4.904;2022-12-07T09:37:53;11.25;;;10.07;;
11839;SDS011;5979;50.800;4.904;2022-12-07T09:40:19;17.35;;;10.18;;
11839;SDS011;5979;50.800;4.904;2022-12-07T09:42:47;10.43;;;9.43;;
11839;SDS011;5979;50.800;4.904;2022-12-07T09:45:27;10.65;;;9.07;;
11839;SDS011;5979;50.800;4.904;2022-12-07T09:47:58;10.00;;;9.02;;
11839;SDS011;5979;50.800;4.904;2022-12-07T09:50:25;11.98;;;9.23;;
11839;SDS011;5979;50.800;4.904;2022-12-07T09:52:52;12.00;;;9.15;;
11839;SDS011;5979;50.800;4.904;2022-12-07T09:55:24;11.50;;;9.80;;
11839;SDS011;5979;50.800;4.904;2022-12-07T09:57:53;9.57;;;8.57;;
11839;SDS011;5979;50.800;4.904;2022-12-07T10:00:20;9.07;;;8.20;;
11839;SDS011;5979;50.800;4.904;2022-12-07T10:02:57;12.52;;;9.02;;
11839;SDS011;5979;50.800;4.904;2022-12-07T10:08:03;12.02;;;8.70;;
11839;SDS011;5979;50.800;4.904;2022-12-07T10:10:30;9.60;;;8.15;;
11839;SDS011;5979;50.800;4.904;2022-12-07T10:13:00;10.32;;;7.85;;
11839;SDS011;5979;50.800;4.904;2022-12-07T10:18:17;11.18;;;8.25;;
11839;SDS011;5979;50.800;4.904;2022-12-07T10:23:34;8.95;;;8.10;;
11839;SDS011;5979;50.800;4.904;2022-12-07T10:29:18;10.20;;;8.00;;
11839;SDS011;5979;50.800;4.904;2022-12-07T10:34:36;9.63;;;7.65;;
11839;SDS011;5979;50.800;4.904;2022-12-07T10:39:41;8.45;;;7.60;;
11839;SDS011;5979;50.800;4.904;2022-12-07T10:42:13;8.50;;;6.82;;
11839;SDS011;5979;50.800;4.904;2022-12-07T10:44:45;11.73;;;7.60;;
11839;SDS011;5979;50.800;4.904;2022-12-07T11:01:10;9.88;;;6.90;;
11839;SDS011;5979;50.800;4.904;2022-12-07T11:08:33;8.23;;;5.78;;
11839;SDS011;5979;50.800;4.904;2022-12-07T11:11:24;11.30;;;6.57;;
11839;SDS011;5979;50.800;4.904;2022-12-07T11:13:53;6.53;;;5.93;;
11839;SDS011;5979;50.800;4.904;2022-12-07T11:16:37;7.00;;;5.70;;
11839;SDS011;5979;50.800;4.904;2022-12-07T11:19:11;8.43;;;5.78;;
11839;SDS011;5979;50.800;4.904;2022-12-07T11:22:00;6.18;;;5.30;;
11839;SDS011;5979;50.800;4.904;2022-12-07T11:24:40;8.35;;;5.65;;
11839;SDS011;5979;50.800;4.904;2022-12-07T11:32:51;6.65;;;5.20;;
11839;SDS011;5979;50.800;4.904;2022-12-07T11:38:01;8.98;;;5.53;;
11839;SDS011;5979;50.800;4.904;2022-12-07T11:40:38;7.15;;;5.05;;
11839;SDS011;5979;50.800;4.904;2022-12-07T11:45:52;5.78;;;4.85;;
11839;SDS011;5979;50.800;4.904;2022-12-07T11:48:58;5.30;;;4.80;;
11839;SDS011;5979;50.800;4.904;2022-12-07T11:51:36;5.35;;;4.85;;
11839;SDS011;5979;50.800;4.904;2022-12-07T11:54:39;6.00;;;4.47;;
11839;SDS011;5979;50.800;4.904;2022-12-07T11:57:02;9.32;;;5.38;;
11839;SDS011;5979;50.800;4.904;2022-12-07T11:59:40;7.35;;;5.10;;
11839;SDS011;5979;50.800;4.904;2022-12-07T12:02:24;8.20;;;5.60;;
11839;SDS011;5979;50.800;4.904;2022-12-07T12:05:22;6.88;;;5.03;;
11839;SDS011;5979;50.800;4.904;2022-12-07T12:16:04;7.28;;;5.30;;
11839;SDS011;5979;50.800;4.904;2022-12-07T12:21:15;12.88;;;5.60;;
11839;SDS011;5979;50.800;4.904;2022-12-07T12:23:58;5.85;;;5.20;;
11839;SDS011;5979;50.800;4.904;2022-12-07T12:26:37;7.47;;;5.07;;
11839;SDS011;5979;50.800;4.904;2022-12-07T12:29:19;5.78;;;4.88;;
11839;SDS011;5979;50.800;4.904;2022-12-07T12:31:47;5.30;;;4.18;;
11839;SDS011;5979;50.800;4.904;2022-12-07T12:40:40;7.53;;;5.32;;
11839;SDS011;5979;50.800;4.904;2022-12-07T12:45:29;6.10;;;5.13;;
11839;SDS011;5979;50.800;4.904;2022-12-07T12:50:31;8.23;;;4.93;;
11839;SDS011;5979;50.800;4.904;2022-12-07T12:53:02;6.95;;;5.03;;
11839;SDS011;5979;50.800;4.904;2022-12-07T13:20:52;7.63;;;4.85;;
11839;SDS011;5979;50.800;4.904;2022-12-07T13:28:39;6.32;;;4.63;;
11839;SDS011;5979;50.800;4.904;2022-12-07T13:31:19;9.95;;;4.97;;
11839;SDS011;5979;50.800;4.904;2022-12-07T13:34:27;7.05;;;5.03;;
11839;SDS011;5979;50.800;4.904;2022-12-07T13:36:58;6.95;;;4.82;;
11839;SDS011;5979;50.800;4.904;2022-12-07T13:39:27;5.50;;;5.00;;
11839;SDS011;5979;50.800;4.904;2022-12-07T13:41:57;7.72;;;5.20;;
11839;SDS011;5979;50.800;4.904;2022-12-07T13:44:25;6.82;;;4.90;;
11839;SDS011;5979;50.800;4.904;2022-12-07T13:49:38;5.63;;;5.20;;
11839;SDS011;5979;50.800;4.904;2022-12-07T13:52:16;12.13;;;5.63;;
11839;SDS011;5979;50.800;4.904;2022-12-07T13:57:29;5.93;;;4.70;;
11839;SDS011;5979;50.800;4.904;2022-12-07T13:59:56;5.53;;;5.03;;
11839;SDS011;5979;50.800;4.904;2022-12-07T14:08:43;5.57;;;4.15;;
11839;SDS011;5979;50.800;4.904;2022-12-07T14:15:52;5.75;;;4.50;;
11839;SDS011;5979;50.800;4.904;2022-12-07T14:18:36;5.82;;;3.72;;
11839;SDS011;5979;50.800;4.904;2022-12-07T14:23:35;4.90;;;4.05;;
11839;SDS011;5979;50.800;4.904;2022-12-07T14:26:06;4.32;;;3.92;;
11839;SDS011;5979;50.800;4.904;2022-12-07T14:28:37;5.93;;;4.15;;
11839;SDS011;5979;50.800;4.904;2022-12-07T14:31:03;5.30;;;4.47;;
11839;SDS011;5979;50.800;4.904;2022-12-07T14:33:35;4.38;;;3.90;;
11839;SDS011;5979;50.800;4.904;2022-12-07T14:36:00;4.80;;;3.80;;
11839;SDS011;5979;50.800;4.904;2022-12-07T14:38:26;3.90;;;3.58;;
11839;SDS011;5979;50.800;4.904;2022-12-07T14:40:52;7.18;;;3.88;;
11839;SDS011;5979;50.800;4.904;2022-12-07T14:43:18;4.90;;;3.35;;
11839;SDS011;5979;50.800;4.904;2022-12-07T14:45:44;4.90;;;3.40;;
11839;SDS011;5979;50.800;4.904;2022-12-07T14:48:11;6.10;;;3.30;;
11839;SDS011;5979;50.800;4.904;2022-12-07T14:50:39;3.85;;;3.55;;
11839;SDS011;5979;50.800;4.904;2022-12-07T14:55:38;5.40;;;3.25;;
11839;SDS011;5979;50.800;4.904;2022-12-07T14:58:04;4.00;;;3.13;;
11839;SDS011;5979;50.800;4.904;2022-12-07T15:00:30;3.53;;;3.20;;
11839;SDS011;5979;50.800;4.904;2022-12-07T15:02:56;3.58;;;3.28;;
11839;SDS011;5979;50.800;4.904;2022-12-07T15:05:22;4.78;;;2.75;;
11839;SDS011;5979;50.800;4.904;2022-12-07T15:07:48;4.10;;;3.08;;
11839;SDS011;5979;50.800;4.904;2022-12-07T15:10:22;6.30;;;3.70;;
11839;SDS011;5979;50.800;4.904;2022-12-07T15:12:54;4.65;;;3.20;;
11839;SDS011;5979;50.800;4.904;2022-12-07T15:15:20;3.65;;;3.00;;
11839;SDS011;5979;50.800;4.904;2022-12-07T15:17:45;3.55;;;3.13;;
11839;SDS011;5979;50.800;4.904;2022-12-07T15:20:12;3.38;;;3.08;;
11839;SDS011;5979;50.800;4.904;2022-12-07T15:22:41;3.88;;;3.47;;
11839;SDS011;5979;50.800;4.904;2022-12-07T15:25:08;4.97;;;3.35;;
11839;SDS011;5979;50.800;4.904;2022-12-07T15:27:37;4.18;;;3.88;;
11839;SDS011;5979;50.800;4.904;2022-12-07T15:30:03;4.45;;;4.10;;
11839;SDS011;5979;50.800;4.904;2022-12-07T15:32:29;4.25;;;3.85;;
11839;SDS011;5979;50.800;4.904;2022-12-07T15:34:55;4.72;;;3.85;;
11839;SDS011;5979;50.800;4.904;2022-12-07T15:37:20;6.15;;;4.57;;
11839;SDS011;5979;50.800;4.904;2022-12-07T15:39:46;6.55;;;4.63;;
11839;SDS011;5979;50.800;4.904;2022-12-07T15:42:12;4.68;;;4.22;;
11839;SDS011;5979;50.800;4.904;2022-12-07T15:44:37;5.57;;;4.20;;
11839;SDS011;5979;50.800;4.904;2022-12-07T15:47:21;5.00;;;3.58;;
11839;SDS011;5979;50.800;4.904;2022-12-07T15:49:47;3.60;;;3.33;;
11839;SDS011;5979;50.800;4.904;2022-12-07T15:52:13;3.83;;;3.53;;
11839;SDS011;5979;50.800;4.904;2022-12-07T15:54:38;5.25;;;4.38;;
11839;SDS011;5979;50.800;4.904;2022-12-07T15:57:04;4.05;;;3.75;;
11839;SDS011;5979;50.800;4.904;2022-12-07T15:59:30;3.88;;;3.58;;
11839;SDS011;5979;50.800;4.904;2022-12-07T16:01:55;3.60;;;3.30;;
11839;SDS011;5979;50.800;4.904;2022-12-07T16:04:21;3.70;;;3.35;;
11839;SDS011;5979;50.800;4.904;2022-12-07T16:06:47;5.18;;;3.85;;
11839;SDS011;5979;50.800;4.904;2022-12-07T16:09:13;4.68;;;4.38;;
11839;SDS011;5979;50.800;4.904;2022-12-07T16:11:38;4.68;;;4.25;;
11839;SDS011;5979;50.800;4.904;2022-12-07T16:14:04;6.18;;;4.55;;
11839;SDS011;5979;50.800;4.904;2022-12-07T16:16:30;4.90;;;4.30;;
11839;SDS011;5979;50.800;4.904;2022-12-07T16:18:56;5.18;;;4.78;;
11839;SDS011;5979;50.800;4.904;2022-12-07T16:21:22;4.75;;;4.35;;
11839;SDS011;5979;50.800;4.904;2022-12-07T16:23:48;4.15;;;3.85;;
11839;SDS011;5979;50.800;4.904;2022-12-07T16:26:14;4.07;;;3.78;;
11839;SDS011;5979;50.800;4.904;2022-12-07T16:28:42;4.97;;;4.57;;
11839;SDS011;5979;50.800;4.904;2022-12-07T16:31:13;4.72;;;4.43;;
11839;SDS011;5979;50.800;4.904;2022-12-07T16:33:40;5.28;;;4.57;;
11839;SDS011;5979;50.800;4.904;2022-12-07T16:36:08;8.82;;;5.18;;
11839;SDS011;5979;50.800;4.904;2022-12-07T16:38:35;5.50;;;4.45;;
11839;SDS011;5979;50.800;4.904;2022-12-07T16:41:01;5.00;;;4.57;;
11839;SDS011;5979;50.800;4.904;2022-12-07T16:43:27;6.00;;;4.47;;
11839;SDS011;5979;50.800;4.904;2022-12-07T16:45:53;4.85;;;4.45;;
11839;SDS011;5979;50.800;4.904;2022-12-07T16:48:18;4.70;;;4.40;;
11839;SDS011;5979;50.800;4.904;2022-12-07T16:50:44;4.57;;;4.18;;
11839;SDS011;5979;50.800;4.904;2022-12-07T16:53:12;4.78;;;4.25;;
11839;SDS011;5979;50.800;4.904;2022-12-07T16:55:39;4.32;;;4.03;;
11839;SDS011;5979;50.800;4.904;2022-12-07T16:58:07;5.93;;;5.07;;
11839;SDS011;5979;50.800;4.904;2022-12-07T17:00:33;6.93;;;5.20;;
11839;SDS011;5979;50.800;4.904;2022-12-07T17:02:59;6.95;;;6.25;;
11839;SDS011;5979;50.800;4.904;2022-12-07T17:05:26;7.82;;;6.55;;
11839;SDS011;5979;50.800;4.904;2022-12-07T17:07:54;6.78;;;6.10;;
11839;SDS011;5979;50.800;4.904;2022-12-07T17:10:21;8.90;;;5.60;;
11839;SDS011;5979;50.800;4.904;2022-12-07T17:12:47;7.55;;;6.57;;
11839;SDS011;5979;50.800;4.904;2022-12-07T17:15:13;7.85;;;7.05;;
11839;SDS011;5979;50.800;4.904;2022-12-07T17:17:45;7.78;;;7.15;;
11839;SDS011;5979;50.800;4.904;2022-12-07T17:20:16;9.45;;;7.57;;
11839;SDS011;5979;50.800;4.904;2022-12-07T17:22:42;9.18;;;7.25;;
11839;SDS011;5979;50.800;4.904;2022-12-07T17:25:08;9.02;;;6.93;;
11839;SDS011;5979;50.800;4.904;2022-12-07T17:27:34;7.53;;;6.35;;
11839;SDS011;5979;50.800;4.904;2022-12-07T17:30:00;6.95;;;6.35;;
11839;SDS011;5979;50.800;4.904;2022-12-07T17:32:27;8.77;;;7.05;;